Tim Quigg — WDB6570 — position and weather

sailwx.info

Track history (hours):
 
Tides and Currents Weather Stations Pressure Air Temp Water Temp Dewpoint Dewpoint Depression Visibility Wind Speed Wind Dir Waves Ship Positions

Tim Quigg

Owner: Harley Marine Services, Inc, Seattle, WA. More information available from US FCC via Universal Licensing System and Coast Guard Vessel Documentation Center.

Last reported at 2017-Oct-23 00:28 UTC. Time now 2017-Oct-23 00:48 UTC.
Position N 33°45' W 118°13'.

; draft 4.4 m.

Type: Tug. MMSI: 366926740.

Date/timePositionNaut miles runAvg speedWind from/ knotsBaromVisibWave heightAir tempDewpointWater temp
2017-Oct-23 00:28N 33°45' W 118°13'0 0.0
2017-Oct-23 00:00N 33°45' W 118°13'0 0.0
2017-Oct-22 23:30N 33°45' W 118°13'2 3.4
2017-Oct-22 23:00N 33°44' W 118°11'0 0.7
2017-Oct-22 22:30N 33°44' W 118°11'1 1.7
2017-Oct-22 22:00N 33°44' W 118°12'2 3.0
2017-Oct-22 21:23N 33°45' W 118°13'0 0.0
2017-Oct-22 21:00N 33°45' W 118°13'0 0.4
2017-Oct-22 20:30N 33°45' W 118°13'2 3.1
2017-Oct-22 19:59N 33°46' W 118°13'0 0.8
2017-Oct-22 19:29N 33°46' W 118°13'3 6.8
2017-Oct-22 19:00N 33°43' W 118°14'1 2.8
2017-Oct-22 18:29N 33°44' W 118°16'0 0.0
2017-Oct-22 18:00N 33°44' W 118°16'0 0.0
2017-Oct-22 17:30N 33°44' W 118°16'0 0.0
2017-Oct-22 16:59N 33°44' W 118°16'2 3.7
2017-Oct-22 16:29N 33°46' W 118°16'2 4.1
2017-Oct-22 16:00N 33°44' W 118°16'3 4.1
2017-Oct-22 15:20N 33°43' W 118°13'1 2.1
2017-Oct-22 14:48N 33°44' W 118°12'2 7.4
2017-Oct-22 14:30N 33°43' W 118°15'1 2.2
2017-Oct-22 13:57N 33°43' W 118°16'1 0.8
2017-Oct-22 12:35N 33°43' W 118°15'0 0.5
2017-Oct-22 12:21N 33°43' W 118°15'1 0.4
2017-Oct-22 08:36N 33°44' W 118°16'0 0.0
2017-Oct-22 06:39N 33°44' W 118°16'0 0.0
2017-Oct-22 06:19N 33°44' W 118°16'0 0.0
2017-Oct-22 05:48N 33°44' W 118°16'0 0.0
2017-Oct-22 05:28N 33°44' W 118°16'1 0.9
2017-Oct-22 03:55N 33°45' W 118°16'3 1.0
2017-Oct-22 01:17N 33°45' W 118°13'1 1.5
2017-Oct-22 00:48N 33°45' W 118°14'1 2.2
2017-Oct-22 00:24N 33°45' W 118°13'0 0.0
2017-Oct-21 23:59N 33°45' W 118°13'0 0.0
2017-Oct-21 23:21N 33°45' W 118°13'1 2.2
2017-Oct-21 23:00N 33°45' W 118°12'0 0.5
2017-Oct-21 22:26N 33°45' W 118°12'1 1.9
2017-Oct-21 21:56N 33°44' W 118°11'1 1.6
2017-Oct-21 21:26N 33°44' W 118°12'1 1.9
2017-Oct-21 20:57N 33°44' W 118°13'0 0.6
2017-Oct-21 20:30N 33°44' W 118°13'2 2.7
2017-Oct-21 19:49N 33°44' W 118°16'1 1.8
2017-Oct-21 19:29N 33°44' W 118°16'1 2.7
2017-Oct-21 18:58N 33°45' W 118°16'2 2.9
2017-Oct-21 18:26N 33°44' W 118°16'1 1.2
2017-Oct-21 17:59N 33°44' W 118°16'0 0.0
2017-Oct-21 17:29N 33°44' W 118°16'0 0.0
2017-Oct-21 16:51N 33°44' W 118°16'0 0.0
2017-Oct-21 16:27N 33°44' W 118°16'0 0.0
2017-Oct-21 15:57N 33°44' W 118°16'0 0.1
2017-Oct-21 15:27N 33°44' W 118°16'3 2.6
2017-Oct-21 14:27N 33°46' W 118°14'1 0.9
2017-Oct-21 12:53N 33°45' W 118°13'1 2.3
2017-Oct-21 12:20N 33°44' W 118°12'4 0.8
2017-Oct-21 07:43N 33°45' W 118°16'1 2.7
2017-Oct-21 07:23N 33°46' W 118°16'2 0.5
2017-Oct-21 03:37N 33°44' W 118°16'0 0.0
2017-Oct-21 02:53N 33°44' W 118°16'0 0.0
2017-Oct-21 02:30N 33°44' W 118°16'0 0.0
2017-Oct-21 01:52N 33°44' W 118°16'0 0.0
2017-Oct-21 01:28N 33°44' W 118°16'0 0.0
2017-Oct-21 00:53N 33°44' W 118°16'0 0.0
2017-Oct-21 00:28N 33°44' W 118°16'0 0.0
2017-Oct-20 23:30N 33°44' W 118°16'0 0.0
2017-Oct-20 22:59N 33°44' W 118°16'1 1.3
2017-Oct-20 22:28N 33°44' W 118°16'0 0.0
2017-Oct-20 22:01N 33°44' W 118°16'0 0.0
2017-Oct-20 21:30N 33°44' W 118°16'0 0.3
2017-Oct-20 20:59N 33°44' W 118°16'1 0.8
2017-Oct-20 20:17N 33°44' W 118°16'0 0.0
2017-Oct-20 19:51N 33°44' W 118°16'1 1.7
2017-Oct-20 19:29N 33°43' W 118°16'3 5.1
2017-Oct-20 18:59N 33°45' W 118°14'1 2.8
2017-Oct-20 18:29N 33°44' W 118°14'2 3.7
2017-Oct-20 17:59N 33°44' W 118°16'0 0.2
2017-Oct-20 17:30N 33°44' W 118°16'1 2.3
2017-Oct-20 17:00N 33°43' W 118°15'4 7.3
2017-Oct-20 16:30N 33°46' W 118°13'0 0.3
2017-Oct-20 15:57N 33°46' W 118°13'1 1.9
2017-Oct-20 15:30N 33°45' W 118°13'2 2.3
2017-Oct-20 14:49N 33°44' W 118°13'2 1.8
2017-Oct-20 13:30N 33°44' W 118°16'0 0.3
2017-Oct-20 12:53N 33°44' W 118°16'0 0.0
2017-Oct-20 12:03N 33°44' W 118°16'0 0.0
2017-Oct-20 11:57N 33°44' W 118°16'0 0.0
2017-Oct-20 11:12N 33°44' W 118°16'0 0.2
2017-Oct-20 10:49N 33°44' W 118°16'2 2.5
2017-Oct-20 09:54N 33°46' W 118°15'0 0.0
2017-Oct-20 09:21N 33°46' W 118°15'0 0.0
2017-Oct-20 08:50N 33°46' W 118°15'1 1.1
2017-Oct-20 07:56N 33°46' W 118°14'3 2.8
2017-Oct-20 06:46N 33°43' W 118°16'2 6.5
2017-Oct-20 06:24N 33°46' W 118°16'2 1.3
2017-Oct-20 05:02N 33°44' W 118°16'0 0.0
2017-Oct-20 04:40N 33°44' W 118°16'0 0.0
2017-Oct-20 04:28N 33°44' W 118°16'0 0.0
2017-Oct-20 03:30N 33°44' W 118°16'0 0.0
2017-Oct-20 02:59N 33°44' W 118°16'0 0.8
2017-Oct-20 02:25N 33°44' W 118°15'0 0.1
2017-Oct-20 01:58N 33°44' W 118°15'1 0.9
2017-Oct-20 01:24N 33°44' W 118°16'0 0.0
2017-Oct-20 01:00N 33°44' W 118°16'0 0.0
2017-Oct-20 00:24N 33°44' W 118°16'0 0.0
2017-Oct-19 23:57N 33°44' W 118°16'0 0.0
2017-Oct-19 23:15N 33°44' W 118°16'0 0.0
2017-Oct-19 22:55N 33°44' W 118°16'2 4.6
2017-Oct-19 22:28N 33°43' W 118°13'1 2.7
2017-Oct-19 21:57N 33°44' W 118°12'3 6.4
2017-Oct-19 21:27N 33°44' W 118°16'0 0.7
2017-Oct-19 20:56N 33°44' W 118°16'0 0.0
2017-Oct-19 20:27N 33°44' W 118°16'0 0.0
2017-Oct-19 19:58N 33°44' W 118°16'0 0.1
2017-Oct-19 19:27N 33°44' W 118°16'3 4.4
2017-Oct-19 18:53N 33°44' W 118°13'1 1.6
2017-Oct-19 18:28N 33°45' W 118°13'3 6.0
2017-Oct-19 17:59N 33°43' W 118°16'1 1.1
2017-Oct-19 17:30N 33°44' W 118°16'0 0.0
2017-Oct-19 16:39N 33°44' W 118°16'0 0.0
2017-Oct-19 16:28N 33°44' W 118°16'2 3.2
2017-Oct-19 16:00N 33°43' W 118°14'4 7.9
2017-Oct-19 15:30N 33°44' W 118°10'3 4.5
2017-Oct-19 14:54N 33°45' W 118°12'3 1.0
2017-Oct-19 12:19N 33°44' W 118°15'0 0.3
2017-Oct-19 10:49N 33°44' W 118°16'0 0.2
2017-Oct-19 10:24N 33°44' W 118°16'0 0.0
2017-Oct-19 10:00N 33°44' W 118°16'1 1.1
2017-Oct-19 09:28N 33°43' W 118°16'3 1.1
2017-Oct-19 06:36N 33°45' W 118°12'110.0
2017-Oct-19 06:29N 33°44' W 118°13'2 2.2
2017-Oct-19 05:36N 33°44' W 118°16'0 0.4
2017-Oct-19 05:29N 33°44' W 118°16'0 0.1
2017-Oct-19 05:00N 33°44' W 118°16'0 0.1
2017-Oct-19 04:18N 33°44' W 118°16'0 0.2
2017-Oct-19 03:59N 33°44' W 118°16'0 0.0
2017-Oct-19 03:30N 33°44' W 118°16'1 2.8
2017-Oct-19 03:00N 33°45' W 118°16'0 0.0
2017-Oct-19 02:30N 33°45' W 118°16'0 0.4
2017-Oct-19 02:00N 33°45' W 118°16'3 4.1
2017-Oct-19 01:23N 33°43' W 118°15'1 3.0
2017-Oct-19 01:00N 33°43' W 118°14'2 4.4
2017-Oct-19 00:30N 33°45' W 118°13'1 1.4
2017-Oct-18 23:59N 33°46' W 118°13'1 1.9
2017-Oct-18 23:27N 33°45' W 118°13'2 5.1
2017-Oct-18 23:00N 33°44' W 118°11'0 0.5
2017-Oct-18 22:30N 33°44' W 118°11'1 1.2
2017-Oct-18 22:00N 33°44' W 118°10'0 0.1
2017-Oct-18 21:30N 33°44' W 118°10'0 0.0
2017-Oct-18 21:00N 33°44' W 118°10'0 0.2
2017-Oct-18 20:30N 33°44' W 118°10'4 7.4
2017-Oct-18 20:00N 33°43' W 118°14'1 2.8
2017-Oct-18 19:28N 33°44' W 118°16'0 0.2
2017-Oct-18 18:59N 33°44' W 118°16'0 0.0
2017-Oct-18 18:28N 33°44' W 118°16'0 0.0
2017-Oct-18 17:52N 33°44' W 118°16'0 0.0
2017-Oct-18 17:30N 33°44' W 118°16'1 1.7
2017-Oct-18 16:57N 33°44' W 118°17'3 5.7
2017-Oct-18 16:30N 33°46' W 118°14'3 2.4
2017-Oct-18 15:16N 33°44' W 118°12'1 5.2
2017-Oct-18 14:59N 33°44' W 118°10'0 0.1
2017-Oct-18 13:57N 33°44' W 118°10'2 3.2
2017-Oct-18 13:23N 33°44' W 118°12'1 2.1
2017-Oct-18 13:00N 33°45' W 118°13'0 0.7
2017-Oct-18 12:30N 33°45' W 118°12'1 1.5
2017-Oct-18 12:00N 33°44' W 118°13'0 0.4
2017-Oct-18 11:25N 33°44' W 118°13'2 4.6
2017-Oct-18 11:00N 33°43' W 118°15'1 1.5
2017-Oct-18 10:21N 33°44' W 118°16'0 0.4
2017-Oct-18 10:00N 33°44' W 118°16'0 0.0
2017-Oct-18 09:30N 33°44' W 118°16'0 0.0
2017-Oct-18 09:00N 33°44' W 118°16'0 0.0
2017-Oct-18 08:30N 33°44' W 118°16'0 0.0
2017-Oct-18 08:00N 33°44' W 118°16'0 0.0
2017-Oct-18 07:29N 33°44' W 118°16'0 0.0
2017-Oct-18 07:00N 33°44' W 118°16'0 0.0
2017-Oct-18 06:30N 33°44' W 118°16'0 0.0
2017-Oct-18 06:00N 33°44' W 118°16'0 0.0
2017-Oct-18 05:30N 33°44' W 118°16'0 0.0
2017-Oct-18 05:00N 33°44' W 118°16'1 2.2
2017-Oct-18 04:24N 33°45' W 118°16'1 1.2
2017-Oct-18 03:58N 33°45' W 118°16'2 4.8
2017-Oct-18 03:30N 33°43' W 118°16'1 0.6
2017-Oct-18 02:21N 33°44' W 118°16'1 1.8
2017-Oct-18 01:57N 33°43' W 118°16'1 2.6
2017-Oct-18 01:26N 33°43' W 118°14'2 3.4
2017-Oct-18 00:58N 33°44' W 118°16'0 0.0
2017-Oct-18 00:30N 33°44' W 118°16'0 0.0
2017-Oct-17 23:49N 33°44' W 118°16'0 0.0
2017-Oct-17 23:26N 33°44' W 118°16'0 0.0
2017-Oct-17 22:59N 33°44' W 118°16'0 0.0
2017-Oct-17 22:27N 33°44' W 118°16'0 0.3
2017-Oct-17 22:00N 33°44' W 118°16'2 3.3
2017-Oct-17 21:30N 33°45' W 118°16'1 1.1
2017-Oct-17 20:56N 33°45' W 118°16'0 0.6
2017-Oct-17 20:25N 33°46' W 118°16'1 3.3
2017-Oct-17 19:59N 33°45' W 118°17'1 2.0
2017-Oct-17 19:30N 33°44' W 118°16'0 0.0
2017-Oct-17 19:00N 33°44' W 118°16'0 0.0
2017-Oct-17 18:29N 33°44' W 118°16'0 0.0
2017-Oct-17 18:00N 33°44' W 118°16'0 0.0
2017-Oct-17 17:30N 33°44' W 118°16'0 0.0
2017-Oct-17 16:58N 33°44' W 118°16'0 0.0
2017-Oct-17 16:29N 33°44' W 118°16'0 0.1
2017-Oct-17 15:59N 33°44' W 118°16'0 0.0
2017-Oct-17 15:16N 33°44' W 118°16'2 4.5
2017-Oct-17 14:55N 33°43' W 118°14'2 5.4
2017-Oct-17 14:30N 33°45' W 118°14'0 0.4
2017-Oct-17 13:53N 33°45' W 118°14'3 6.8
2017-Oct-17 13:29N 33°43' W 118°11'0 0.6
2017-Oct-17 13:00N 33°44' W 118°11'3 5.3
2017-Oct-17 12:29N 33°45' W 118°14'0 0.2
2017-Oct-17 11:56N 33°45' W 118°14'2 2.9
2017-Oct-17 11:12N 33°44' W 118°16'0 0.0
2017-Oct-17 10:51N 33°44' W 118°16'1 1.1
2017-Oct-17 09:50N 33°45' W 118°16'1 2.3
2017-Oct-17 09:18N 33°44' W 118°16'0 0.2
2017-Oct-17 08:18N 33°44' W 118°16'0 0.0
2017-Oct-17 07:20N 33°44' W 118°16'0 0.0
2017-Oct-17 06:57N 33°44' W 118°16'0 0.0
2017-Oct-17 06:23N 33°44' W 118°16'0 0.0
2017-Oct-17 05:57N 33°44' W 118°16'0 0.0
2017-Oct-17 05:27N 33°44' W 118°16'0 0.0
2017-Oct-17 04:51N 33°44' W 118°16'0 0.5
2017-Oct-17 04:30N 33°44' W 118°16'1 2.3
2017-Oct-17 03:57N 33°45' W 118°16'1 2.2
2017-Oct-17 03:29N 33°46' W 118°16'0 0.3
2017-Oct-17 02:56N 33°46' W 118°16'0 0.2
2017-Oct-17 02:23N 33°46' W 118°15'1 2.9
2017-Oct-17 01:59N 33°45' W 118°16'3 4.6
2017-Oct-17 01:26N 33°43' W 118°15'0 0.7
2017-Oct-17 01:00N 33°43' W 118°15'1 2.4
2017-Oct-17 00:28N 33°44' W 118°16'0 0.0
2017-Oct-16 23:57N 33°44' W 118°16'0 0.0
2017-Oct-16 23:29N 33°44' W 118°16'0 0.0
2017-Oct-16 23:00N 33°44' W 118°16'0 0.9
2017-Oct-16 22:30N 33°44' W 118°15'0 0.4
2017-Oct-16 22:00N 33°44' W 118°15'2 3.1
2017-Oct-16 21:30N 33°42' W 118°15'2 3.3
2017-Oct-16 21:00N 33°44' W 118°16'0 0.0
2017-Oct-16 20:30N 33°44' W 118°16'0 0.0
2017-Oct-16 20:00N 33°44' W 118°16'0 0.0
2017-Oct-16 19:30N 33°44' W 118°16'0 0.0
2017-Oct-16 18:59N 33°44' W 118°16'0 0.0
2017-Oct-16 18:30N 33°44' W 118°16'0 0.0
2017-Oct-16 18:00N 33°44' W 118°16'0 0.0
2017-Oct-16 17:30N 33°44' W 118°16'0 0.0
2017-Oct-16 16:56N 33°44' W 118°16'0 0.0
2017-Oct-16 16:30N 33°44' W 118°16'0 0.0
2017-Oct-16 16:00N 33°44' W 118°16'0 0.0
2017-Oct-16 15:29N 33°44' W 118°16'0 0.1
2017-Oct-16 15:00N 33°44' W 118°16'3 0.6
2017-Oct-16 09:48N 33°45' W 118°12'4 6.9
2017-Oct-16 09:14N 33°44' W 118°16'1 1.7
2017-Oct-16 08:50N 33°45' W 118°16'0 0.0
2017-Oct-16 08:16N 33°45' W 118°16'0 0.0
2017-Oct-16 07:57N 33°45' W 118°16'0 0.0
2017-Oct-16 07:25N 33°45' W 118°16'0 0.0
2017-Oct-16 06:56N 33°45' W 118°16'0 0.0
2017-Oct-16 06:29N 33°45' W 118°16'1 2.0
2017-Oct-16 05:59N 33°44' W 118°16'0 0.0
2017-Oct-16 05:25N 33°44' W 118°16'0 0.0
2017-Oct-16 04:59N 33°44' W 118°16'0 0.0
2017-Oct-16 04:26N 33°44' W 118°16'0 0.0
2017-Oct-16 03:58N 33°44' W 118°16'0 0.0
2017-Oct-16 03:30N 33°44' W 118°16'0 0.0
2017-Oct-16 03:00N 33°44' W 118°16'0 0.0
2017-Oct-16 02:30N 33°44' W 118°16'0 0.0
2017-Oct-16 01:58N 33°44' W 118°16'0 0.0
2017-Oct-16 01:28N 33°44' W 118°16'0 0.2
2017-Oct-16 00:59N 33°44' W 118°16'0 0.0
2017-Oct-16 00:28N 33°44' W 118°16'0 0.0
2017-Oct-16 00:00N 33°44' W 118°16'0 0.0
2017-Oct-15 23:31N 33°44' W 118°16'0 0.0
2017-Oct-15 23:00N 33°44' W 118°16'1 1.1
2017-Oct-15 22:30N 33°43' W 118°16'1 2.4
2017-Oct-15 21:59N 33°45' W 118°16'2 4.2
2017-Oct-15 21:29N 33°43' W 118°15'3 5.7
2017-Oct-15 20:58N 33°45' W 118°12'1 2.7
2017-Oct-15 20:29N 33°44' W 118°13'2 3.6
2017-Oct-15 19:57N 33°44' W 118°16'0 0.0
2017-Oct-15 19:30N 33°44' W 118°16'0 0.0
2017-Oct-15 19:00N 33°44' W 118°16'0 0.0
2017-Oct-15 18:30N 33°44' W 118°16'0 0.0
2017-Oct-15 17:58N 33°44' W 118°16'0 0.0
2017-Oct-15 17:30N 33°44' W 118°16'0 0.0
2017-Oct-15 16:59N 33°44' W 118°16'0 0.0
2017-Oct-15 16:30N 33°44' W 118°16'2 4.0
2017-Oct-15 16:01N 33°44' W 118°13'2 3.0
2017-Oct-15 15:30N 33°46' W 118°13'0 0.4
2017-Oct-15 15:00N 33°46' W 118°13'1 1.2
2017-Oct-15 14:00N 33°44' W 118°13'2 3.6
2017-Oct-15 13:30N 33°44' W 118°15'0 0.6
2017-Oct-15 13:00N 33°44' W 118°15'1 2.5
2017-Oct-15 12:30N 33°43' W 118°15'0 0.2
2017-Oct-15 11:59N 33°43' W 118°14'2 3.3
2017-Oct-15 11:14N 33°45' W 118°13'0 0.0
2017-Oct-15 10:28N 33°45' W 118°13'0 0.0
2017-Oct-15 09:56N 33°45' W 118°13'0 0.0
2017-Oct-15 09:30N 33°45' W 118°13'0 0.0
2017-Oct-15 09:00N 33°45' W 118°13'0 0.0
2017-Oct-15 08:30N 33°45' W 118°13'0 0.0
2017-Oct-15 07:48N 33°45' W 118°13'0 0.0
2017-Oct-15 07:30N 33°45' W 118°13'1 1.3
2017-Oct-15 07:00N 33°46' W 118°13'1 1.3
2017-Oct-15 06:30N 33°46' W 118°13'3 7.0
2017-Oct-15 06:00N 33°43' W 118°14'1 2.6
2017-Oct-15 05:30N 33°44' W 118°16'0 0.0
2017-Oct-15 05:00N 33°44' W 118°16'0 0.0
2017-Oct-15 04:30N 33°44' W 118°16'0 0.0
2017-Oct-15 03:58N 33°44' W 118°16'0 0.0
2017-Oct-15 03:30N 33°44' W 118°16'0 0.0
2017-Oct-15 03:01N 33°44' W 118°16'1 1.9
2017-Oct-15 02:30N 33°43' W 118°15'3 6.7
2017-Oct-15 02:00N 33°45' W 118°12'1 1.4
2017-Oct-15 01:30N 33°44' W 118°13'2 5.0
2017-Oct-15 01:00N 33°44' W 118°16'1 1.1
2017-Oct-15 00:31N 33°44' W 118°15'0 0.1
2017-Oct-15 00:00N 33°44' W 118°15'1 1.4
2017-Oct-14 23:31N 33°44' W 118°16'0 0.0
2017-Oct-14 23:00N 33°44' W 118°16'0 0.0
2017-Oct-14 22:31N 33°44' W 118°16'1 1.5
2017-Oct-14 22:01N 33°43' W 118°16'2 3.2
2017-Oct-14 21:30N 33°45' W 118°17'0 0.0
2017-Oct-14 21:00N 33°45' W 118°17'0 0.0
2017-Oct-14 20:30N 33°45' W 118°17'2 4.3
2017-Oct-14 20:01N 33°43' W 118°15'1 2.6
2017-Oct-14 19:31N 33°43' W 118°14'2 3.6
2017-Oct-14 19:00N 33°44' W 118°16'0 0.0
2017-Oct-14 18:31N 33°44' W 118°16'0 0.2
2017-Oct-14 17:59N 33°44' W 118°16'0 0.0
2017-Oct-14 17:31N 33°44' W 118°16'0 0.0
2017-Oct-14 17:00N 33°44' W 118°16'0 0.0
2017-Oct-14 16:30N 33°44' W 118°16'0 0.0
2017-Oct-14 16:00N 33°44' W 118°16'0 0.0
2017-Oct-14 15:30N 33°44' W 118°16'1 2.4
2017-Oct-14 15:00N 33°45' W 118°16'0 0.4
2017-Oct-14 14:28N 33°45' W 118°16'1 2.0
2017-Oct-14 14:00N 33°46' W 118°16'0 0.3
2017-Oct-14 13:16N 33°46' W 118°16'0 0.0
2017-Oct-14 12:53N 33°46' W 118°16'0 0.0
2017-Oct-14 12:31N 33°46' W 118°16'1 1.8
2017-Oct-14 12:00N 33°45' W 118°17'1 2.0
2017-Oct-14 11:30N 33°44' W 118°17'2 3.8
2017-Oct-14 10:58N 33°43' W 118°15'3 5.6
2017-Oct-14 10:30N 33°45' W 118°16'1 1.3
2017-Oct-14 09:50N 33°46' W 118°15'0 0.3
2017-Oct-14 09:26N 33°46' W 118°16'0 0.0
2017-Oct-14 09:00N 33°46' W 118°16'0 0.0
2017-Oct-14 08:31N 33°46' W 118°16'0 0.0
2017-Oct-14 08:00N 33°46' W 118°16'0 0.0
2017-Oct-14 07:30N 33°46' W 118°16'0 0.0
2017-Oct-14 07:00N 33°46' W 118°16'0 0.0
2017-Oct-14 06:30N 33°46' W 118°16'1 1.1
2017-Oct-14 06:00N 33°46' W 118°15'2 4.6
2017-Oct-14 05:29N 33°44' W 118°16'1 1.2
2017-Oct-14 05:01N 33°44' W 118°16'0 0.0
2017-Oct-14 04:30N 33°44' W 118°16'0 0.0
2017-Oct-14 04:01N 33°44' W 118°16'0 0.0
2017-Oct-14 03:31N 33°44' W 118°16'0 0.0
2017-Oct-14 03:00N 33°44' W 118°16'3 6.3
2017-Oct-14 02:31N 33°44' W 118°12'2 4.1
2017-Oct-14 02:00N 33°44' W 118°10'3 4.1
2017-Oct-14 01:23N 33°45' W 118°12'0 1.1
2017-Oct-14 00:59N 33°45' W 118°13'0 0.0
2017-Oct-14 00:27N 33°45' W 118°13'0 0.0
2017-Oct-13 23:56N 33°45' W 118°13'0 0.0
2017-Oct-13 23:30N 33°45' W 118°13'0 0.5
2017-Oct-13 23:00N 33°45' W 118°13'5 8.5
2017-Oct-13 22:29N 33°44' W 118°08'2 3.8
2017-Oct-13 21:59N 33°44' W 118°06'0 0.8
2017-Oct-13 21:27N 33°44' W 118°06'3 7.5
2017-Oct-13 21:00N 33°44' W 118°10'5 8.4
2017-Oct-13 20:27N 33°43' W 118°16'1 1.6
2017-Oct-13 19:58N 33°44' W 118°16'0 0.0
2017-Oct-13 19:27N 33°44' W 118°16'0 0.0
2017-Oct-13 19:00N 33°44' W 118°16'0 0.0
2017-Oct-13 18:30N 33°44' W 118°16'0 0.0
2017-Oct-13 17:59N 33°44' W 118°16'0 0.0
2017-Oct-13 17:27N 33°44' W 118°16'0 0.0
2017-Oct-13 17:00N 33°44' W 118°16'0 0.6
2017-Oct-13 16:30N 33°44' W 118°16'3 5.8
2017-Oct-13 16:01N 33°44' W 118°12'2 4.4
2017-Oct-13 15:29N 33°46' W 118°13'1 1.1
2017-Oct-13 14:58N 33°46' W 118°14'0 0.0
2017-Oct-13 14:30N 33°46' W 118°14'0 0.7
2017-Oct-13 13:50N 33°46' W 118°13'0 0.4
2017-Oct-13 13:28N 33°46' W 118°13'1 3.2
2017-Oct-13 13:00N 33°45' W 118°13'4 6.6
2017-Oct-13 12:23N 33°41' W 118°11'0 0.7
2017-Oct-13 12:00N 33°41' W 118°11'2 4.0
2017-Oct-13 11:27N 33°43' W 118°11'1 2.6
2017-Oct-13 11:00N 33°44' W 118°10'0 0.0
2017-Oct-13 10:30N 33°44' W 118°10'0 0.5
2017-Oct-13 10:00N 33°44' W 118°10'3 6.7
2017-Oct-13 09:31N 33°43' W 118°14'2 3.4
2017-Oct-13 09:00N 33°44' W 118°16'0 0.0
2017-Oct-13 08:30N 33°44' W 118°16'0 0.0
2017-Oct-13 08:00N 33°44' W 118°16'0 0.0
2017-Oct-13 07:30N 33°44' W 118°16'0 0.0
2017-Oct-13 07:00N 33°44' W 118°16'0 0.0
2017-Oct-13 06:31N 33°44' W 118°16'0 0.0
2017-Oct-13 06:01N 33°44' W 118°16'0 0.0
2017-Oct-13 05:30N 33°44' W 118°16'0 0.0
2017-Oct-13 05:00N 33°44' W 118°16'0 0.0
2017-Oct-13 04:31N 33°44' W 118°16'0 0.0
2017-Oct-13 04:00N 33°44' W 118°16'0 0.0
2017-Oct-13 03:31N 33°44' W 118°16'0 0.0
2017-Oct-13 03:00N 33°44' W 118°16'0 0.0
2017-Oct-13 02:27N 33°44' W 118°16'3 6.1
2017-Oct-13 02:00N 33°43' W 118°12'1 1.1
2017-Oct-13 01:30N 33°44' W 118°12'3 5.9
2017-Oct-13 00:57N 33°44' W 118°16'  
Track history (hours):
 
Tides and Currents Weather Stations Pressure Air Temp Water Temp Dewpoint Dewpoint Depression Visibility Wind Speed Wind Dir Waves Ship Positions

Tim Quigg

Owner: Harley Marine Services, Inc, Seattle, WA. More information available from US FCC via Universal Licensing System and Coast Guard Vessel Documentation Center.

Last reported at 2017-Oct-23 00:28 UTC. Time now 2017-Oct-23 00:48 UTC.
Position N 33°45' W 118°13'.

; draft 4.4 m.

Type: Tug. MMSI: 366926740.

Date/timePositionNaut miles runAvg speedWind from/ knotsBaromVisibWave heightAir tempDewpointWater temp
2017-Oct-23 00:28N 33°45' W 118°13'0 0.0
2017-Oct-23 00:00N 33°45' W 118°13'0 0.0
2017-Oct-22 23:30N 33°45' W 118°13'2 3.4
2017-Oct-22 23:00N 33°44' W 118°11'0 0.7
2017-Oct-22 22:30N 33°44' W 118°11'1 1.7
2017-Oct-22 22:00N 33°44' W 118°12'2 3.0
2017-Oct-22 21:23N 33°45' W 118°13'0 0.0
2017-Oct-22 21:00N 33°45' W 118°13'0 0.4
2017-Oct-22 20:30N 33°45' W 118°13'2 3.1
2017-Oct-22 19:59N 33°46' W 118°13'0 0.8
2017-Oct-22 19:29N 33°46' W 118°13'3 6.8
2017-Oct-22 19:00N 33°43' W 118°14'1 2.8
2017-Oct-22 18:29N 33°44' W 118°16'0 0.0
2017-Oct-22 18:00N 33°44' W 118°16'0 0.0
2017-Oct-22 17:30N 33°44' W 118°16'0 0.0
2017-Oct-22 16:59N 33°44' W 118°16'2 3.7
2017-Oct-22 16:29N 33°46' W 118°16'2 4.1
2017-Oct-22 16:00N 33°44' W 118°16'3 4.1
2017-Oct-22 15:20N 33°43' W 118°13'1 2.1
2017-Oct-22 14:48N 33°44' W 118°12'2 7.4
2017-Oct-22 14:30N 33°43' W 118°15'1 2.2
2017-Oct-22 13:57N 33°43' W 118°16'1 0.8
2017-Oct-22 12:35N 33°43' W 118°15'0 0.5
2017-Oct-22 12:21N 33°43' W 118°15'1 0.4
2017-Oct-22 08:36N 33°44' W 118°16'0 0.0
2017-Oct-22 06:39N 33°44' W 118°16'0 0.0
2017-Oct-22 06:19N 33°44' W 118°16'0 0.0
2017-Oct-22 05:48N 33°44' W 118°16'0 0.0
2017-Oct-22 05:28N 33°44' W 118°16'1 0.9
2017-Oct-22 03:55N 33°45' W 118°16'3 1.0
2017-Oct-22 01:17N 33°45' W 118°13'1 1.5
2017-Oct-22 00:48N 33°45' W 118°14'1 2.2
2017-Oct-22 00:24N 33°45' W 118°13'0 0.0
2017-Oct-21 23:59N 33°45' W 118°13'0 0.0
2017-Oct-21 23:21N 33°45' W 118°13'1 2.2
2017-Oct-21 23:00N 33°45' W 118°12'0 0.5
2017-Oct-21 22:26N 33°45' W 118°12'1 1.9
2017-Oct-21 21:56N 33°44' W 118°11'1 1.6
2017-Oct-21 21:26N 33°44' W 118°12'1 1.9
2017-Oct-21 20:57N 33°44' W 118°13'0 0.6
2017-Oct-21 20:30N 33°44' W 118°13'2 2.7
2017-Oct-21 19:49N 33°44' W 118°16'1 1.8
2017-Oct-21 19:29N 33°44' W 118°16'1 2.7
2017-Oct-21 18:58N 33°45' W 118°16'2 2.9
2017-Oct-21 18:26N 33°44' W 118°16'1 1.2
2017-Oct-21 17:59N 33°44' W 118°16'0 0.0
2017-Oct-21 17:29N 33°44' W 118°16'0 0.0
2017-Oct-21 16:51N 33°44' W 118°16'0 0.0
2017-Oct-21 16:27N 33°44' W 118°16'0 0.0
2017-Oct-21 15:57N 33°44' W 118°16'0 0.1
2017-Oct-21 15:27N 33°44' W 118°16'3 2.6
2017-Oct-21 14:27N 33°46' W 118°14'1 0.9
2017-Oct-21 12:53N 33°45' W 118°13'1 2.3
2017-Oct-21 12:20N 33°44' W 118°12'4 0.8
2017-Oct-21 07:43N 33°45' W 118°16'1 2.7
2017-Oct-21 07:23N 33°46' W 118°16'2 0.5
2017-Oct-21 03:37N 33°44' W 118°16'0 0.0
2017-Oct-21 02:53N 33°44' W 118°16'0 0.0
2017-Oct-21 02:30N 33°44' W 118°16'0 0.0
2017-Oct-21 01:52N 33°44' W 118°16'0 0.0
2017-Oct-21 01:28N 33°44' W 118°16'0 0.0
2017-Oct-21 00:53N 33°44' W 118°16'0 0.0
2017-Oct-21 00:28N 33°44' W 118°16'0 0.0
2017-Oct-20 23:30N 33°44' W 118°16'0 0.0
2017-Oct-20 22:59N 33°44' W 118°16'1 1.3
2017-Oct-20 22:28N 33°44' W 118°16'0 0.0
2017-Oct-20 22:01N 33°44' W 118°16'0 0.0
2017-Oct-20 21:30N 33°44' W 118°16'0 0.3
2017-Oct-20 20:59N 33°44' W 118°16'1 0.8
2017-Oct-20 20:17N 33°44' W 118°16'0 0.0
2017-Oct-20 19:51N 33°44' W 118°16'1 1.7
2017-Oct-20 19:29N 33°43' W 118°16'3 5.1
2017-Oct-20 18:59N 33°45' W 118°14'1 2.8
2017-Oct-20 18:29N 33°44' W 118°14'2 3.7
2017-Oct-20 17:59N 33°44' W 118°16'0 0.2
2017-Oct-20 17:30N 33°44' W 118°16'1 2.3
2017-Oct-20 17:00N 33°43' W 118°15'4 7.3
2017-Oct-20 16:30N 33°46' W 118°13'0 0.3
2017-Oct-20 15:57N 33°46' W 118°13'1 1.9
2017-Oct-20 15:30N 33°45' W 118°13'2 2.3
2017-Oct-20 14:49N 33°44' W 118°13'2 1.8
2017-Oct-20 13:30N 33°44' W 118°16'0 0.3
2017-Oct-20 12:53N 33°44' W 118°16'0 0.0
2017-Oct-20 12:03N 33°44' W 118°16'0 0.0
2017-Oct-20 11:57N 33°44' W 118°16'0 0.0
2017-Oct-20 11:12N 33°44' W 118°16'0 0.2
2017-Oct-20 10:49N 33°44' W 118°16'2 2.5
2017-Oct-20 09:54N 33°46' W 118°15'0 0.0
2017-Oct-20 09:21N 33°46' W 118°15'0 0.0
2017-Oct-20 08:50N 33°46' W 118°15'1 1.1
2017-Oct-20 07:56N 33°46' W 118°14'3 2.8
2017-Oct-20 06:46N 33°43' W 118°16'2 6.5
2017-Oct-20 06:24N 33°46' W 118°16'2 1.3
2017-Oct-20 05:02N 33°44' W 118°16'0 0.0
2017-Oct-20 04:40N 33°44' W 118°16'0 0.0
2017-Oct-20 04:28N 33°44' W 118°16'0 0.0
2017-Oct-20 03:30N 33°44' W 118°16'0 0.0
2017-Oct-20 02:59N 33°44' W 118°16'0 0.8
2017-Oct-20 02:25N 33°44' W 118°15'0 0.1
2017-Oct-20 01:58N 33°44' W 118°15'1 0.9
2017-Oct-20 01:24N 33°44' W 118°16'0 0.0
2017-Oct-20 01:00N 33°44' W 118°16'0 0.0
2017-Oct-20 00:24N 33°44' W 118°16'0 0.0
2017-Oct-19 23:57N 33°44' W 118°16'0 0.0
2017-Oct-19 23:15N 33°44' W 118°16'0 0.0
2017-Oct-19 22:55N 33°44' W 118°16'2 4.6
2017-Oct-19 22:28N 33°43' W 118°13'1 2.7
2017-Oct-19 21:57N 33°44' W 118°12'3 6.4
2017-Oct-19 21:27N 33°44' W 118°16'0 0.7
2017-Oct-19 20:56N 33°44' W 118°16'0 0.0
2017-Oct-19 20:27N 33°44' W 118°16'0 0.0
2017-Oct-19 19:58N 33°44' W 118°16'0 0.1
2017-Oct-19 19:27N 33°44' W 118°16'3 4.4
2017-Oct-19 18:53N 33°44' W 118°13'1 1.6
2017-Oct-19 18:28N 33°45' W 118°13'3 6.0
2017-Oct-19 17:59N 33°43' W 118°16'1 1.1
2017-Oct-19 17:30N 33°44' W 118°16'0 0.0
2017-Oct-19 16:39N 33°44' W 118°16'0 0.0
2017-Oct-19 16:28N 33°44' W 118°16'2 3.2
2017-Oct-19 16:00N 33°43' W 118°14'4 7.9
2017-Oct-19 15:30N 33°44' W 118°10'3 4.5
2017-Oct-19 14:54N 33°45' W 118°12'3 1.0
2017-Oct-19 12:19N 33°44' W 118°15'0 0.3
2017-Oct-19 10:49N 33°44' W 118°16'0 0.2
2017-Oct-19 10:24N 33°44' W 118°16'0 0.0
2017-Oct-19 10:00N 33°44' W 118°16'1 1.1
2017-Oct-19 09:28N 33°43' W 118°16'3 1.1
2017-Oct-19 06:36N 33°45' W 118°12'110.0
2017-Oct-19 06:29N 33°44' W 118°13'2 2.2
2017-Oct-19 05:36N 33°44' W 118°16'0 0.4
2017-Oct-19 05:29N 33°44' W 118°16'0 0.1
2017-Oct-19 05:00N 33°44' W 118°16'0 0.1
2017-Oct-19 04:18N 33°44' W 118°16'0 0.2
2017-Oct-19 03:59N 33°44' W 118°16'0 0.0
2017-Oct-19 03:30N 33°44' W 118°16'1 2.8
2017-Oct-19 03:00N 33°45' W 118°16'0 0.0
2017-Oct-19 02:30N 33°45' W 118°16'0 0.4
2017-Oct-19 02:00N 33°45' W 118°16'3 4.1
2017-Oct-19 01:23N 33°43' W 118°15'1 3.0
2017-Oct-19 01:00N 33°43' W 118°14'2 4.4
2017-Oct-19 00:30N 33°45' W 118°13'1 1.4
2017-Oct-18 23:59N 33°46' W 118°13'1 1.9
2017-Oct-18 23:27N 33°45' W 118°13'2 5.1
2017-Oct-18 23:00N 33°44' W 118°11'0 0.5
2017-Oct-18 22:30N 33°44' W 118°11'1 1.2
2017-Oct-18 22:00N 33°44' W 118°10'0 0.1
2017-Oct-18 21:30N 33°44' W 118°10'0 0.0
2017-Oct-18 21:00N 33°44' W 118°10'0 0.2
2017-Oct-18 20:30N 33°44' W 118°10'4 7.4
2017-Oct-18 20:00N 33°43' W 118°14'1 2.8
2017-Oct-18 19:28N 33°44' W 118°16'0 0.2
2017-Oct-18 18:59N 33°44' W 118°16'0 0.0
2017-Oct-18 18:28N 33°44' W 118°16'0 0.0
2017-Oct-18 17:52N 33°44' W 118°16'0 0.0
2017-Oct-18 17:30N 33°44' W 118°16'1 1.7
2017-Oct-18 16:57N 33°44' W 118°17'3 5.7
2017-Oct-18 16:30N 33°46' W 118°14'3 2.4
2017-Oct-18 15:16N 33°44' W 118°12'1 5.2
2017-Oct-18 14:59N 33°44' W 118°10'0 0.1
2017-Oct-18 13:57N 33°44' W 118°10'2 3.2
2017-Oct-18 13:23N 33°44' W 118°12'1 2.1
2017-Oct-18 13:00N 33°45' W 118°13'0 0.7
2017-Oct-18 12:30N 33°45' W 118°12'1 1.5
2017-Oct-18 12:00N 33°44' W 118°13'0 0.4
2017-Oct-18 11:25N 33°44' W 118°13'2 4.6
2017-Oct-18 11:00N 33°43' W 118°15'1 1.5
2017-Oct-18 10:21N 33°44' W 118°16'0 0.4
2017-Oct-18 10:00N 33°44' W 118°16'0 0.0
2017-Oct-18 09:30N 33°44' W 118°16'0 0.0
2017-Oct-18 09:00N 33°44' W 118°16'0 0.0
2017-Oct-18 08:30N 33°44' W 118°16'0 0.0
2017-Oct-18 08:00N 33°44' W 118°16'0 0.0
2017-Oct-18 07:29N 33°44' W 118°16'0 0.0
2017-Oct-18 07:00N 33°44' W 118°16'0 0.0
2017-Oct-18 06:30N 33°44' W 118°16'0 0.0
2017-Oct-18 06:00N 33°44' W 118°16'0 0.0
2017-Oct-18 05:30N 33°44' W 118°16'0 0.0
2017-Oct-18 05:00N 33°44' W 118°16'1 2.2
2017-Oct-18 04:24N 33°45' W 118°16'1 1.2
2017-Oct-18 03:58N 33°45' W 118°16'2 4.8
2017-Oct-18 03:30N 33°43' W 118°16'1 0.6
2017-Oct-18 02:21N 33°44' W 118°16'1 1.8
2017-Oct-18 01:57N 33°43' W 118°16'1 2.6
2017-Oct-18 01:26N 33°43' W 118°14'2 3.4
2017-Oct-18 00:58N 33°44' W 118°16'0 0.0
2017-Oct-18 00:30N 33°44' W 118°16'0 0.0
2017-Oct-17 23:49N 33°44' W 118°16'0 0.0
2017-Oct-17 23:26N 33°44' W 118°16'0 0.0
2017-Oct-17 22:59N 33°44' W 118°16'0 0.0
2017-Oct-17 22:27N 33°44' W 118°16'0 0.3
2017-Oct-17 22:00N 33°44' W 118°16'2 3.3
2017-Oct-17 21:30N 33°45' W 118°16'1 1.1
2017-Oct-17 20:56N 33°45' W 118°16'0 0.6
2017-Oct-17 20:25N 33°46' W 118°16'1 3.3
2017-Oct-17 19:59N 33°45' W 118°17'1 2.0
2017-Oct-17 19:30N 33°44' W 118°16'0 0.0
2017-Oct-17 19:00N 33°44' W 118°16'0 0.0
2017-Oct-17 18:29N 33°44' W 118°16'0 0.0
2017-Oct-17 18:00N 33°44' W 118°16'0 0.0
2017-Oct-17 17:30N 33°44' W 118°16'0 0.0
2017-Oct-17 16:58N 33°44' W 118°16'0 0.0
2017-Oct-17 16:29N 33°44' W 118°16'0 0.1
2017-Oct-17 15:59N 33°44' W 118°16'0 0.0
2017-Oct-17 15:16N 33°44' W 118°16'2 4.5
2017-Oct-17 14:55N 33°43' W 118°14'2 5.4
2017-Oct-17 14:30N 33°45' W 118°14'0 0.4
2017-Oct-17 13:53N 33°45' W 118°14'3 6.8
2017-Oct-17 13:29N 33°43' W 118°11'0 0.6
2017-Oct-17 13:00N 33°44' W 118°11'3 5.3
2017-Oct-17 12:29N 33°45' W 118°14'0 0.2
2017-Oct-17 11:56N 33°45' W 118°14'2 2.9
2017-Oct-17 11:12N 33°44' W 118°16'0 0.0
2017-Oct-17 10:51N 33°44' W 118°16'1 1.1
2017-Oct-17 09:50N 33°45' W 118°16'1 2.3
2017-Oct-17 09:18N 33°44' W 118°16'0 0.2
2017-Oct-17 08:18N 33°44' W 118°16'0 0.0
2017-Oct-17 07:20N 33°44' W 118°16'0 0.0
2017-Oct-17 06:57N 33°44' W 118°16'0 0.0
2017-Oct-17 06:23N 33°44' W 118°16'0 0.0
2017-Oct-17 05:57N 33°44' W 118°16'0 0.0
2017-Oct-17 05:27N 33°44' W 118°16'0 0.0
2017-Oct-17 04:51N 33°44' W 118°16'0 0.5
2017-Oct-17 04:30N 33°44' W 118°16'1 2.3
2017-Oct-17 03:57N 33°45' W 118°16'1 2.2
2017-Oct-17 03:29N 33°46' W 118°16'0 0.3
2017-Oct-17 02:56N 33°46' W 118°16'0 0.2
2017-Oct-17 02:23N 33°46' W 118°15'1 2.9
2017-Oct-17 01:59N 33°45' W 118°16'3 4.6
2017-Oct-17 01:26N 33°43' W 118°15'0 0.7
2017-Oct-17 01:00N 33°43' W 118°15'1 2.4
2017-Oct-17 00:28N 33°44' W 118°16'0 0.0
2017-Oct-16 23:57N 33°44' W 118°16'0 0.0
2017-Oct-16 23:29N 33°44' W 118°16'0 0.0
2017-Oct-16 23:00N 33°44' W 118°16'0 0.9
2017-Oct-16 22:30N 33°44' W 118°15'0 0.4
2017-Oct-16 22:00N 33°44' W 118°15'2 3.1
2017-Oct-16 21:30N 33°42' W 118°15'2 3.3
2017-Oct-16 21:00N 33°44' W 118°16'0 0.0
2017-Oct-16 20:30N 33°44' W 118°16'0 0.0
2017-Oct-16 20:00N 33°44' W 118°16'0 0.0
2017-Oct-16 19:30N 33°44' W 118°16'0 0.0
2017-Oct-16 18:59N 33°44' W 118°16'0 0.0
2017-Oct-16 18:30N 33°44' W 118°16'0 0.0
2017-Oct-16 18:00N 33°44' W 118°16'0 0.0
2017-Oct-16 17:30N 33°44' W 118°16'0 0.0
2017-Oct-16 16:56N 33°44' W 118°16'0 0.0
2017-Oct-16 16:30N 33°44' W 118°16'0 0.0
2017-Oct-16 16:00N 33°44' W 118°16'0 0.0
2017-Oct-16 15:29N 33°44' W 118°16'0 0.1
2017-Oct-16 15:00N 33°44' W 118°16'3 0.6
2017-Oct-16 09:48N 33°45' W 118°12'4 6.9
2017-Oct-16 09:14N 33°44' W 118°16'1 1.7
2017-Oct-16 08:50N 33°45' W 118°16'0 0.0
2017-Oct-16 08:16N 33°45' W 118°16'0 0.0
2017-Oct-16 07:57N 33°45' W 118°16'0 0.0
2017-Oct-16 07:25N 33°45' W 118°16'0 0.0
2017-Oct-16 06:56N 33°45' W 118°16'0 0.0
2017-Oct-16 06:29N 33°45' W 118°16'1 2.0
2017-Oct-16 05:59N 33°44' W 118°16'0 0.0
2017-Oct-16 05:25N 33°44' W 118°16'0 0.0
2017-Oct-16 04:59N 33°44' W 118°16'0 0.0
2017-Oct-16 04:26N 33°44' W 118°16'0 0.0
2017-Oct-16 03:58N 33°44' W 118°16'0 0.0
2017-Oct-16 03:30N 33°44' W 118°16'0 0.0
2017-Oct-16 03:00N 33°44' W 118°16'0 0.0
2017-Oct-16 02:30N 33°44' W 118°16'0 0.0
2017-Oct-16 01:58N 33°44' W 118°16'0 0.0
2017-Oct-16 01:28N 33°44' W 118°16'0 0.2
2017-Oct-16 00:59N 33°44' W 118°16'0 0.0
2017-Oct-16 00:28N 33°44' W 118°16'0 0.0
2017-Oct-16 00:00N 33°44' W 118°16'0 0.0
2017-Oct-15 23:31N 33°44' W 118°16'0 0.0
2017-Oct-15 23:00N 33°44' W 118°16'1 1.1
2017-Oct-15 22:30N 33°43' W 118°16'1 2.4
2017-Oct-15 21:59N 33°45' W 118°16'2 4.2
2017-Oct-15 21:29N 33°43' W 118°15'3 5.7
2017-Oct-15 20:58N 33°45' W 118°12'1 2.7
2017-Oct-15 20:29N 33°44' W 118°13'2 3.6
2017-Oct-15 19:57N 33°44' W 118°16'0 0.0
2017-Oct-15 19:30N 33°44' W 118°16'0 0.0
2017-Oct-15 19:00N 33°44' W 118°16'0 0.0
2017-Oct-15 18:30N 33°44' W 118°16'0 0.0
2017-Oct-15 17:58N 33°44' W 118°16'0 0.0
2017-Oct-15 17:30N 33°44' W 118°16'0 0.0
2017-Oct-15 16:59N 33°44' W 118°16'0 0.0
2017-Oct-15 16:30N 33°44' W 118°16'2 4.0
2017-Oct-15 16:01N 33°44' W 118°13'2 3.0
2017-Oct-15 15:30N 33°46' W 118°13'0 0.4
2017-Oct-15 15:00N 33°46' W 118°13'1 1.2
2017-Oct-15 14:00N 33°44' W 118°13'2 3.6
2017-Oct-15 13:30N 33°44' W 118°15'0 0.6
2017-Oct-15 13:00N 33°44' W 118°15'1 2.5
2017-Oct-15 12:30N 33°43' W 118°15'0 0.2
2017-Oct-15 11:59N 33°43' W 118°14'2 3.3
2017-Oct-15 11:14N 33°45' W 118°13'0 0.0
2017-Oct-15 10:28N 33°45' W 118°13'0 0.0
2017-Oct-15 09:56N 33°45' W 118°13'0 0.0
2017-Oct-15 09:30N 33°45' W 118°13'0 0.0
2017-Oct-15 09:00N 33°45' W 118°13'0 0.0
2017-Oct-15 08:30N 33°45' W 118°13'0 0.0
2017-Oct-15 07:48N 33°45' W 118°13'0 0.0
2017-Oct-15 07:30N 33°45' W 118°13'1 1.3
2017-Oct-15 07:00N 33°46' W 118°13'1 1.3
2017-Oct-15 06:30N 33°46' W 118°13'3 7.0
2017-Oct-15 06:00N 33°43' W 118°14'1 2.6
2017-Oct-15 05:30N 33°44' W 118°16'0 0.0
2017-Oct-15 05:00N 33°44' W 118°16'0 0.0
2017-Oct-15 04:30N 33°44' W 118°16'0 0.0
2017-Oct-15 03:58N 33°44' W 118°16'0 0.0
2017-Oct-15 03:30N 33°44' W 118°16'0 0.0
2017-Oct-15 03:01N 33°44' W 118°16'1 1.9
2017-Oct-15 02:30N 33°43' W 118°15'3 6.7
2017-Oct-15 02:00N 33°45' W 118°12'1 1.4
2017-Oct-15 01:30N 33°44' W 118°13'2 5.0
2017-Oct-15 01:00N 33°44' W 118°16'1 1.1
2017-Oct-15 00:31N 33°44' W 118°15'0 0.1
2017-Oct-15 00:00N 33°44' W 118°15'1 1.4
2017-Oct-14 23:31N 33°44' W 118°16'0 0.0
2017-Oct-14 23:00N 33°44' W 118°16'0 0.0
2017-Oct-14 22:31N 33°44' W 118°16'1 1.5
2017-Oct-14 22:01N 33°43' W 118°16'2 3.2
2017-Oct-14 21:30N 33°45' W 118°17'0 0.0
2017-Oct-14 21:00N 33°45' W 118°17'0 0.0
2017-Oct-14 20:30N 33°45' W 118°17'2 4.3
2017-Oct-14 20:01N 33°43' W 118°15'1 2.6
2017-Oct-14 19:31N 33°43' W 118°14'2 3.6
2017-Oct-14 19:00N 33°44' W 118°16'0 0.0
2017-Oct-14 18:31N 33°44' W 118°16'0 0.2
2017-Oct-14 17:59N 33°44' W 118°16'0 0.0
2017-Oct-14 17:31N 33°44' W 118°16'0 0.0
2017-Oct-14 17:00N 33°44' W 118°16'0 0.0
2017-Oct-14 16:30N 33°44' W 118°16'0 0.0
2017-Oct-14 16:00N 33°44' W 118°16'0 0.0
2017-Oct-14 15:30N 33°44' W 118°16'1 2.4
2017-Oct-14 15:00N 33°45' W 118°16'0 0.4
2017-Oct-14 14:28N 33°45' W 118°16'1 2.0
2017-Oct-14 14:00N 33°46' W 118°16'0 0.3
2017-Oct-14 13:16N 33°46' W 118°16'0 0.0
2017-Oct-14 12:53N 33°46' W 118°16'0 0.0
2017-Oct-14 12:31N 33°46' W 118°16'1 1.8
2017-Oct-14 12:00N 33°45' W 118°17'1 2.0
2017-Oct-14 11:30N 33°44' W 118°17'2 3.8
2017-Oct-14 10:58N 33°43' W 118°15'3 5.6
2017-Oct-14 10:30N 33°45' W 118°16'1 1.3
2017-Oct-14 09:50N 33°46' W 118°15'0 0.3
2017-Oct-14 09:26N 33°46' W 118°16'0 0.0
2017-Oct-14 09:00N 33°46' W 118°16'0 0.0
2017-Oct-14 08:31N 33°46' W 118°16'0 0.0
2017-Oct-14 08:00N 33°46' W 118°16'0 0.0
2017-Oct-14 07:30N 33°46' W 118°16'0 0.0
2017-Oct-14 07:00N 33°46' W 118°16'0 0.0
2017-Oct-14 06:30N 33°46' W 118°16'1 1.1
2017-Oct-14 06:00N 33°46' W 118°15'2 4.6
2017-Oct-14 05:29N 33°44' W 118°16'1 1.2
2017-Oct-14 05:01N 33°44' W 118°16'0 0.0
2017-Oct-14 04:30N 33°44' W 118°16'0 0.0
2017-Oct-14 04:01N 33°44' W 118°16'0 0.0
2017-Oct-14 03:31N 33°44' W 118°16'0 0.0
2017-Oct-14 03:00N 33°44' W 118°16'3 6.3
2017-Oct-14 02:31N 33°44' W 118°12'2 4.1
2017-Oct-14 02:00N 33°44' W 118°10'3 4.1
2017-Oct-14 01:23N 33°45' W 118°12'0 1.1
2017-Oct-14 00:59N 33°45' W 118°13'0 0.0
2017-Oct-14 00:27N 33°45' W 118°13'0 0.0
2017-Oct-13 23:56N 33°45' W 118°13'0 0.0
2017-Oct-13 23:30N 33°45' W 118°13'0 0.5
2017-Oct-13 23:00N 33°45' W 118°13'5 8.5
2017-Oct-13 22:29N 33°44' W 118°08'2 3.8
2017-Oct-13 21:59N 33°44' W 118°06'0 0.8
2017-Oct-13 21:27N 33°44' W 118°06'3 7.5
2017-Oct-13 21:00N 33°44' W 118°10'5 8.4
2017-Oct-13 20:27N 33°43' W 118°16'1 1.6
2017-Oct-13 19:58N 33°44' W 118°16'0 0.0
2017-Oct-13 19:27N 33°44' W 118°16'0 0.0
2017-Oct-13 19:00N 33°44' W 118°16'0 0.0
2017-Oct-13 18:30N 33°44' W 118°16'0 0.0
2017-Oct-13 17:59N 33°44' W 118°16'0 0.0
2017-Oct-13 17:27N 33°44' W 118°16'0 0.0
2017-Oct-13 17:00N 33°44' W 118°16'0 0.6
2017-Oct-13 16:30N 33°44' W 118°16'3 5.8
2017-Oct-13 16:01N 33°44' W 118°12'2 4.4
2017-Oct-13 15:29N 33°46' W 118°13'1 1.1
2017-Oct-13 14:58N 33°46' W 118°14'0 0.0
2017-Oct-13 14:30N 33°46' W 118°14'0 0.7
2017-Oct-13 13:50N 33°46' W 118°13'0 0.4
2017-Oct-13 13:28N 33°46' W 118°13'1 3.2
2017-Oct-13 13:00N 33°45' W 118°13'4 6.6
2017-Oct-13 12:23N 33°41' W 118°11'0 0.7
2017-Oct-13 12:00N 33°41' W 118°11'2 4.0
2017-Oct-13 11:27N 33°43' W 118°11'1 2.6
2017-Oct-13 11:00N 33°44' W 118°10'0 0.0
2017-Oct-13 10:30N 33°44' W 118°10'0 0.5
2017-Oct-13 10:00N 33°44' W 118°10'3 6.7
2017-Oct-13 09:31N 33°43' W 118°14'2 3.4
2017-Oct-13 09:00N 33°44' W 118°16'0 0.0
2017-Oct-13 08:30N 33°44' W 118°16'0 0.0
2017-Oct-13 08:00N 33°44' W 118°16'0 0.0
2017-Oct-13 07:30N 33°44' W 118°16'0 0.0
2017-Oct-13 07:00N 33°44' W 118°16'0 0.0
2017-Oct-13 06:31N 33°44' W 118°16'0 0.0
2017-Oct-13 06:01N 33°44' W 118°16'0 0.0
2017-Oct-13 05:30N 33°44' W 118°16'0 0.0
2017-Oct-13 05:00N 33°44' W 118°16'0 0.0
2017-Oct-13 04:31N 33°44' W 118°16'0 0.0
2017-Oct-13 04:00N 33°44' W 118°16'0 0.0
2017-Oct-13 03:31N 33°44' W 118°16'0 0.0
2017-Oct-13 03:00N 33°44' W 118°16'0 0.0
2017-Oct-13 02:27N 33°44' W 118°16'3 6.1
2017-Oct-13 02:00N 33°43' W 118°12'1 1.1
2017-Oct-13 01:30N 33°44' W 118°12'3 5.9
2017-Oct-13 00:57N 33°44' W 118°16'  

Dump ship's entire track history